Denver, Missouri
Current Conditions -  °F | °C
As of 1:53 PM on Friday 19 Dec 2014 (Local Time) from KLWD Reporting Station
Overcast Overcast  
Wind Chill: 24°   Ceiling: 800
Heat Index: 32°   Visibility: 7mi
Dew Point: 29°   Wind: 10mph
Humidity: 88%   Direction: 180°S
Pressure: 30.21"   Gusts: NA
Location:  40.4°N, 94.32°W
Report Text: KLWD 191953Z AUTO 18009KT 7SM OVC008 00/M02 A3021 RMK AO2 SLP244 T00001017
Loading
Personal Weather Stations






























Interactive Weather Map New forecast layout! Learn more

10-Day Weather Forecast

Advertisements
Track Severe Weather on mobile